Moose Jaw Air Vice Marshal C. M. McEwen Airport
CYMJ : now visible

Airfield :











YOU CAN JOIN US ON...

 
LOGIN :

Register | Disclaimer

   EN    FR    IT 

 









Legend :    VFR   Marginal VFR   IFR   Intensive IFR   Very Intensive IFR
Visi :
Ceiling :
>= 8 km
>= 3000ft
5 to 8 km
1000 to 3000 ft
1500m to 5 km
500 to 1000 ft
800 to 1500m
200 to 500 ft
< 800m
< 200 ft
Symbols :   Thunderstorms  Fog  Heavy snow  Heavy precipitations  Wind > 20 kt






- Airport Elevation : 1892 ft
- IATA code : YMJ


CYMJ - Moose Jaw Air Vice Marshal C. M. McEwen

CURRENT METAR :
  • 221100Z 20015KT 15SM FEW300 02/M07 A2964 RMK CI1 SLP050

EXPIRED METARs :
  • 221000Z 22014G19KT 15SM FEW300 05/M07 A2965 RMK CI2 FST OBS SLP051

TAF TAF CYMJ
Valid from the 22 at 12:00 until the 23 at 00:00 UTC


221130Z 2212/2224 24015G25KT P6SM FEW300
BECMG 2216/2218 35022G32KT
BECMG 2220/2222 BKN040
FM222200 35020G30KT P6SM BKN040
TEMPO 2222/2224 P6SM -SHRA OVC030
BECMG 2223/2224 35015G25KT RMK NXT FCST BY 221800Z
CZWG FIR / North America



MET'MAP, your aeronautical weather chart ! - Copyright ORBIFLY December 2007 - Disclaimer

ORBIFLY MET'MAP TEAM :

Programming & Development : Alexandra Zaïnal
Concept & original design : Baudouin d'Aumeries
Assistance for programming : Marc-Olivier Méhu
Technical & hardware support : Manuel Goepfert

Contact : metmap@orbifly.com




SOURCES & CREDITS :

   NOAA       Earth
Advisory